sensor_id;sensor_type;location;lat;lon;timestamp;temperature;humidity
60701;DHT22;46541;49.894;10.886;2023-06-10T00:01:43;19.60;87.30
60701;DHT22;46541;49.894;10.886;2023-06-10T00:04:16;19.60;87.90
60701;DHT22;46541;49.894;10.886;2023-06-10T00:06:44;19.50;88.00
60701;DHT22;46541;49.894;10.886;2023-06-10T00:09:11;19.50;88.40
60701;DHT22;46541;49.894;10.886;2023-06-10T00:11:38;19.50;88.90
60701;DHT22;46541;49.894;10.886;2023-06-10T00:14:06;19.40;88.90
60701;DHT22;46541;49.894;10.886;2023-06-10T00:16:33;19.40;89.20
60701;DHT22;46541;49.894;10.886;2023-06-10T00:19:00;19.40;89.50
60701;DHT22;46541;49.894;10.886;2023-06-10T00:21:28;19.40;90.10
60701;DHT22;46541;49.894;10.886;2023-06-10T00:23:55;19.30;90.00
60701;DHT22;46541;49.894;10.886;2023-06-10T00:26:23;19.30;90.20
60701;DHT22;46541;49.894;10.886;2023-06-10T00:28:50;19.30;90.50
60701;DHT22;46541;49.894;10.886;2023-06-10T00:31:17;19.30;90.50
60701;DHT22;46541;49.894;10.886;2023-06-10T00:33:44;19.30;90.80
60701;DHT22;46541;49.894;10.886;2023-06-10T00:36:11;19.20;91.00
60701;DHT22;46541;49.894;10.886;2023-06-10T00:38:37;19.20;91.20
60701;DHT22;46541;49.894;10.886;2023-06-10T00:41:04;19.10;91.30
60701;DHT22;46541;49.894;10.886;2023-06-10T00:43:31;19.10;91.50
60701;DHT22;46541;49.894;10.886;2023-06-10T00:45:58;19.00;91.60
60701;DHT22;46541;49.894;10.886;2023-06-10T00:48:26;19.00;91.70
60701;DHT22;46541;49.894;10.886;2023-06-10T00:50:53;19.00;91.90
60701;DHT22;46541;49.894;10.886;2023-06-10T00:53:21;19.00;92.00
60701;DHT22;46541;49.894;10.886;2023-06-10T00:55:48;18.90;92.10
60701;DHT22;46541;49.894;10.886;2023-06-10T00:58:15;18.90;92.20
60701;DHT22;46541;49.894;10.886;2023-06-10T01:00:43;18.90;92.40
60701;DHT22;46541;49.894;10.886;2023-06-10T01:03:12;18.80;92.60
60701;DHT22;46541;49.894;10.886;2023-06-10T01:05:39;18.80;92.90
60701;DHT22;46541;49.894;10.886;2023-06-10T01:08:41;18.80;93.00
60701;DHT22;46541;49.894;10.886;2023-06-10T01:11:23;18.70;93.00
60701;DHT22;46541;49.894;10.886;2023-06-10T01:13:50;18.70;93.40
60701;DHT22;46541;49.894;10.886;2023-06-10T01:16:19;18.70;93.40
60701;DHT22;46541;49.894;10.886;2023-06-10T01:18:46;18.70;93.70
60701;DHT22;46541;49.894;10.886;2023-06-10T01:21:22;18.70;93.80
60701;DHT22;46541;49.894;10.886;2023-06-10T01:23:54;18.70;93.90
60701;DHT22;46541;49.894;10.886;2023-06-10T01:26:26;18.70;94.00
60701;DHT22;46541;49.894;10.886;2023-06-10T01:31:43;18.70;94.20
60701;DHT22;46541;49.894;10.886;2023-06-10T01:34:15;18.70;94.40
60701;DHT22;46541;49.894;10.886;2023-06-10T01:36:47;18.60;94.50
60701;DHT22;46541;49.894;10.886;2023-06-10T01:39:18;18.60;94.70
60701;DHT22;46541;49.894;10.886;2023-06-10T01:41:48;18.60;94.70
60701;DHT22;46541;49.894;10.886;2023-06-10T01:44:20;18.60;94.70
60701;DHT22;46541;49.894;10.886;2023-06-10T01:46:46;18.50;95.10
60701;DHT22;46541;49.894;10.886;2023-06-10T01:49:13;18.50;95.70
60701;DHT22;46541;49.894;10.886;2023-06-10T01:51:40;18.50;95.90
60701;DHT22;46541;49.894;10.886;2023-06-10T01:54:07;18.50;96.20
60701;DHT22;46541;49.894;10.886;2023-06-10T01:56:34;18.40;96.10
60701;DHT22;46541;49.894;10.886;2023-06-10T01:59:01;18.40;96.20
60701;DHT22;46541;49.894;10.886;2023-06-10T02:01:28;18.40;96.50
60701;DHT22;46541;49.894;10.886;2023-06-10T02:03:55;18.30;96.60
60701;DHT22;46541;49.894;10.886;2023-06-10T02:06:22;18.30;96.90
60701;DHT22;46541;49.894;10.886;2023-06-10T02:08:49;18.20;97.20
60701;DHT22;46541;49.894;10.886;2023-06-10T02:11:15;18.20;97.60
60701;DHT22;46541;49.894;10.886;2023-06-10T02:13:42;18.10;97.80
60701;DHT22;46541;49.894;10.886;2023-06-10T02:16:09;18.10;98.00
60701;DHT22;46541;49.894;10.886;2023-06-10T02:18:41;18.10;98.20
60701;DHT22;46541;49.894;10.886;2023-06-10T02:21:09;18.10;98.30
60701;DHT22;46541;49.894;10.886;2023-06-10T02:23:36;18.10;98.30
60701;DHT22;46541;49.894;10.886;2023-06-10T02:26:03;18.00;98.30
60701;DHT22;46541;49.894;10.886;2023-06-10T02:28:30;18.00;98.60
60701;DHT22;46541;49.894;10.886;2023-06-10T02:30:57;17.90;98.70
60701;DHT22;46541;49.894;10.886;2023-06-10T02:33:25;17.90;98.80
60701;DHT22;46541;49.894;10.886;2023-06-10T02:35:52;17.90;99.00
60701;DHT22;46541;49.894;10.886;2023-06-10T02:38:19;17.90;99.00
60701;DHT22;46541;49.894;10.886;2023-06-10T02:40:46;17.90;99.10
60701;DHT22;46541;49.894;10.886;2023-06-10T02:43:12;17.90;99.20
60701;DHT22;46541;49.894;10.886;2023-06-10T02:45:39;17.90;99.30
60701;DHT22;46541;49.894;10.886;2023-06-10T02:48:06;17.80;99.40
60701;DHT22;46541;49.894;10.886;2023-06-10T02:50:33;17.80;99.50
60701;DHT22;46541;49.894;10.886;2023-06-10T02:53:00;17.80;99.40
60701;DHT22;46541;49.894;10.886;2023-06-10T02:55:26;17.80;99.40
60701;DHT22;46541;49.894;10.886;2023-06-10T02:57:54;17.80;99.40
60701;DHT22;46541;49.894;10.886;2023-06-10T03:00:21;17.80;99.50
60701;DHT22;46541;49.894;10.886;2023-06-10T03:02:48;17.80;99.40
60701;DHT22;46541;49.894;10.886;2023-06-10T03:05:15;17.70;99.50
60701;DHT22;46541;49.894;10.886;2023-06-10T03:07:43;17.60;99.60
60701;DHT22;46541;49.894;10.886;2023-06-10T03:10:10;17.70;99.60
60701;DHT22;46541;49.894;10.886;2023-06-10T03:12:37;17.60;99.70
60701;DHT22;46541;49.894;10.886;2023-06-10T03:15:04;17.60;99.70
60701;DHT22;46541;49.894;10.886;2023-06-10T03:17:32;17.60;99.90
60701;DHT22;46541;49.894;10.886;2023-06-10T03:19:59;17.60;99.90
60701;DHT22;46541;49.894;10.886;2023-06-10T03:22:25;17.60;99.90
60701;DHT22;46541;49.894;10.886;2023-06-10T03:24:52;17.60;99.90
60701;DHT22;46541;49.894;10.886;2023-06-10T03:27:20;17.50;99.90
60701;DHT22;46541;49.894;10.886;2023-06-10T03:29:47;17.50;99.90
60701;DHT22;46541;49.894;10.886;2023-06-10T03:32:13;17.50;99.90
60701;DHT22;46541;49.894;10.886;2023-06-10T03:34:40;17.50;99.90
60701;DHT22;46541;49.894;10.886;2023-06-10T03:37:07;17.50;99.90
60701;DHT22;46541;49.894;10.886;2023-06-10T03:39:34;17.50;99.90
60701;DHT22;46541;49.894;10.886;2023-06-10T03:42:01;17.50;99.90
60701;DHT22;46541;49.894;10.886;2023-06-10T03:44:28;17.50;99.90
60701;DHT22;46541;49.894;10.886;2023-06-10T03:46:55;17.50;99.90
60701;DHT22;46541;49.894;10.886;2023-06-10T03:49:22;17.40;99.90
60701;DHT22;46541;49.894;10.886;2023-06-10T03:51:53;17.40;99.90
60701;DHT22;46541;49.894;10.886;2023-06-10T03:54:21;17.50;99.90
60701;DHT22;46541;49.894;10.886;2023-06-10T03:56:47;17.50;99.90
60701;DHT22;46541;49.894;10.886;2023-06-10T03:59:17;17.40;99.90
60701;DHT22;46541;49.894;10.886;2023-06-10T04:01:44;17.40;99.90
60701;DHT22;46541;49.894;10.886;2023-06-10T04:04:14;17.40;99.90
60701;DHT22;46541;49.894;10.886;2023-06-10T04:06:43;17.40;99.90
60701;DHT22;46541;49.894;10.886;2023-06-10T04:09:11;17.40;99.90
60701;DHT22;46541;49.894;10.886;2023-06-10T04:11:38;17.50;99.90
60701;DHT22;46541;49.894;10.886;2023-06-10T04:14:05;17.50;99.90
60701;DHT22;46541;49.894;10.886;2023-06-10T04:16:31;17.40;99.90
60701;DHT22;46541;49.894;10.886;2023-06-10T04:18:59;17.40;99.90
60701;DHT22;46541;49.894;10.886;2023-06-10T04:21:27;17.40;99.90
60701;DHT22;46541;49.894;10.886;2023-06-10T04:23:54;17.50;99.90
60701;DHT22;46541;49.894;10.886;2023-06-10T04:26:20;17.50;99.90
60701;DHT22;46541;49.894;10.886;2023-06-10T04:28:48;17.50;99.90
60701;DHT22;46541;49.894;10.886;2023-06-10T04:31:15;17.60;99.90
60701;DHT22;46541;49.894;10.886;2023-06-10T04:33:42;17.60;99.90
60701;DHT22;46541;49.894;10.886;2023-06-10T04:36:09;17.60;99.90
60701;DHT22;46541;49.894;10.886;2023-06-10T04:38:35;17.60;99.90
60701;DHT22;46541;49.894;10.886;2023-06-10T04:41:02;17.70;99.90
60701;DHT22;46541;49.894;10.886;2023-06-10T04:43:29;17.80;99.90
60701;DHT22;46541;49.894;10.886;2023-06-10T04:45:57;17.80;99.90
60701;DHT22;46541;49.894;10.886;2023-06-10T04:48:23;18.00;99.90
60701;DHT22;46541;49.894;10.886;2023-06-10T04:50:50;18.00;99.90
60701;DHT22;46541;49.894;10.886;2023-06-10T04:53:17;18.10;99.90
60701;DHT22;46541;49.894;10.886;2023-06-10T04:55:44;18.20;99.90
60701;DHT22;46541;49.894;10.886;2023-06-10T04:58:11;18.20;99.90
60701;DHT22;46541;49.894;10.886;2023-06-10T05:00:37;18.30;99.90
60701;DHT22;46541;49.894;10.886;2023-06-10T05:03:04;18.30;99.90
60701;DHT22;46541;49.894;10.886;2023-06-10T05:05:31;18.40;99.90
60701;DHT22;46541;49.894;10.886;2023-06-10T05:07:58;18.40;99.90
60701;DHT22;46541;49.894;10.886;2023-06-10T05:10:24;18.50;99.90
60701;DHT22;46541;49.894;10.886;2023-06-10T05:12:51;18.60;99.90
60701;DHT22;46541;49.894;10.886;2023-06-10T05:15:18;18.60;99.90
60701;DHT22;46541;49.894;10.886;2023-06-10T05:17:45;18.70;99.90
60701;DHT22;46541;49.894;10.886;2023-06-10T05:20:12;18.80;99.90
60701;DHT22;46541;49.894;10.886;2023-06-10T05:22:40;18.90;99.90
60701;DHT22;46541;49.894;10.886;2023-06-10T05:25:07;18.90;99.90
60701;DHT22;46541;49.894;10.886;2023-06-10T05:27:35;19.00;99.90
60701;DHT22;46541;49.894;10.886;2023-06-10T05:30:02;19.10;99.90
60701;DHT22;46541;49.894;10.886;2023-06-10T05:32:30;19.30;99.90
60701;DHT22;46541;49.894;10.886;2023-06-10T05:34:57;19.40;99.90
60701;DHT22;46541;49.894;10.886;2023-06-10T05:37:24;19.50;99.60
60701;DHT22;46541;49.894;10.886;2023-06-10T05:39:51;19.50;99.50
60701;DHT22;46541;49.894;10.886;2023-06-10T05:42:17;19.70;99.30
60701;DHT22;46541;49.894;10.886;2023-06-10T05:44:44;19.80;99.10
60701;DHT22;46541;49.894;10.886;2023-06-10T05:47:11;19.90;99.10
60701;DHT22;46541;49.894;10.886;2023-06-10T05:49:37;20.00;98.70
60701;DHT22;46541;49.894;10.886;2023-06-10T05:52:05;20.10;98.60
60701;DHT22;46541;49.894;10.886;2023-06-10T05:54:32;20.20;98.30
60701;DHT22;46541;49.894;10.886;2023-06-10T05:56:58;20.20;98.30
60701;DHT22;46541;49.894;10.886;2023-06-10T05:59:25;20.10;98.40
60701;DHT22;46541;49.894;10.886;2023-06-10T06:01:52;20.00;98.70
60701;DHT22;46541;49.894;10.886;2023-06-10T06:04:18;20.20;98.50
60701;DHT22;46541;49.894;10.886;2023-06-10T06:06:45;20.40;98.30
60701;DHT22;46541;49.894;10.886;2023-06-10T06:09:12;20.60;98.00
60701;DHT22;46541;49.894;10.886;2023-06-10T06:11:39;20.80;97.80
60701;DHT22;46541;49.894;10.886;2023-06-10T06:14:06;20.90;97.60
60701;DHT22;46541;49.894;10.886;2023-06-10T06:16:33;21.10;97.40
60701;DHT22;46541;49.894;10.886;2023-06-10T06:19:00;21.30;97.10
60701;DHT22;46541;49.894;10.886;2023-06-10T06:21:26;21.50;96.80
60701;DHT22;46541;49.894;10.886;2023-06-10T06:23:53;21.60;96.50
60701;DHT22;46541;49.894;10.886;2023-06-10T06:26:20;21.80;96.30
60701;DHT22;46541;49.894;10.886;2023-06-10T06:28:47;22.00;96.00
60701;DHT22;46541;49.894;10.886;2023-06-10T06:31:14;22.10;95.80
60701;DHT22;46541;49.894;10.886;2023-06-10T06:33:40;22.20;95.70
60701;DHT22;46541;49.894;10.886;2023-06-10T06:36:07;22.40;95.50
60701;DHT22;46541;49.894;10.886;2023-06-10T06:38:34;22.60;95.30
60701;DHT22;46541;49.894;10.886;2023-06-10T06:41:01;22.70;94.90
60701;DHT22;46541;49.894;10.886;2023-06-10T06:43:30;22.90;94.80
60701;DHT22;46541;49.894;10.886;2023-06-10T06:45:57;23.00;94.60
60701;DHT22;46541;49.894;10.886;2023-06-10T06:48:24;23.20;94.20
60701;DHT22;46541;49.894;10.886;2023-06-10T06:50:51;23.40;94.20
60701;DHT22;46541;49.894;10.886;2023-06-10T06:53:18;23.50;93.70
60701;DHT22;46541;49.894;10.886;2023-06-10T06:55:45;23.60;93.60
60701;DHT22;46541;49.894;10.886;2023-06-10T06:58:11;23.70;93.40
60701;DHT22;46541;49.894;10.886;2023-06-10T07:00:38;23.90;93.10
60701;DHT22;46541;49.894;10.886;2023-06-10T07:03:05;24.10;92.90
60701;DHT22;46541;49.894;10.886;2023-06-10T07:05:32;24.30;92.40
60701;DHT22;46541;49.894;10.886;2023-06-10T07:07:59;24.30;92.40
60701;DHT22;46541;49.894;10.886;2023-06-10T07:10:28;24.30;92.20
60701;DHT22;46541;49.894;10.886;2023-06-10T07:12:55;24.60;92.10
60701;DHT22;46541;49.894;10.886;2023-06-10T07:15:21;24.70;91.50
60701;DHT22;46541;49.894;10.886;2023-06-10T07:17:48;24.90;91.20
60701;DHT22;46541;49.894;10.886;2023-06-10T07:20:15;24.90;90.10
60701;DHT22;46541;49.894;10.886;2023-06-10T07:22:42;25.00;89.30
60701;DHT22;46541;49.894;10.886;2023-06-10T07:25:09;25.10;88.60
60701;DHT22;46541;49.894;10.886;2023-06-10T07:27:36;25.10;89.00
60701;DHT22;46541;49.894;10.886;2023-06-10T07:30:05;25.40;87.70
60701;DHT22;46541;49.894;10.886;2023-06-10T07:32:33;25.50;86.40
60701;DHT22;46541;49.894;10.886;2023-06-10T07:35:00;25.70;86.20
60701;DHT22;46541;49.894;10.886;2023-06-10T07:37:27;25.60;86.10
60701;DHT22;46541;49.894;10.886;2023-06-10T07:39:55;25.70;85.40
60701;DHT22;46541;49.894;10.886;2023-06-10T07:42:22;25.80;84.60
60701;DHT22;46541;49.894;10.886;2023-06-10T07:44:48;25.80;83.10
60701;DHT22;46541;49.894;10.886;2023-06-10T07:47:15;25.90;83.20
60701;DHT22;46541;49.894;10.886;2023-06-10T07:49:42;26.00;81.00
60701;DHT22;46541;49.894;10.886;2023-06-10T07:52:09;26.10;81.40
60701;DHT22;46541;49.894;10.886;2023-06-10T07:54:35;26.20;80.10
60701;DHT22;46541;49.894;10.886;2023-06-10T07:57:02;26.40;79.70
60701;DHT22;46541;49.894;10.886;2023-06-10T07:59:29;26.50;78.80
60701;DHT22;46541;49.894;10.886;2023-06-10T08:01:56;26.60;78.40
60701;DHT22;46541;49.894;10.886;2023-06-10T08:04:23;26.60;77.80
60701;DHT22;46541;49.894;10.886;2023-06-10T08:06:50;26.60;77.30
60701;DHT22;46541;49.894;10.886;2023-06-10T08:09:16;26.70;77.30
60701;DHT22;46541;49.894;10.886;2023-06-10T08:11:46;26.80;77.30
60701;DHT22;46541;49.894;10.886;2023-06-10T08:14:13;26.80;77.10
60701;DHT22;46541;49.894;10.886;2023-06-10T08:16:43;26.80;75.70
60701;DHT22;46541;49.894;10.886;2023-06-10T08:19:10;26.70;76.00
60701;DHT22;46541;49.894;10.886;2023-06-10T08:21:37;26.80;76.10
60701;DHT22;46541;49.894;10.886;2023-06-10T08:24:07;27.10;75.40
60701;DHT22;46541;49.894;10.886;2023-06-10T08:26:34;27.20;75.20
60701;DHT22;46541;49.894;10.886;2023-06-10T08:29:01;27.40;74.80
60701;DHT22;46541;49.894;10.886;2023-06-10T08:31:27;27.50;74.70
60701;DHT22;46541;49.894;10.886;2023-06-10T08:33:54;27.60;73.70
60701;DHT22;46541;49.894;10.886;2023-06-10T08:36:21;27.70;74.20
60701;DHT22;46541;49.894;10.886;2023-06-10T08:38:48;27.90;74.40
60701;DHT22;46541;49.894;10.886;2023-06-10T08:41:17;27.80;72.70
60701;DHT22;46541;49.894;10.886;2023-06-10T08:43:48;28.00;73.30
60701;DHT22;46541;49.894;10.886;2023-06-10T08:46:20;28.30;73.20
60701;DHT22;46541;49.894;10.886;2023-06-10T08:48:49;28.20;72.20
60701;DHT22;46541;49.894;10.886;2023-06-10T08:51:19;28.10;71.60
60701;DHT22;46541;49.894;10.886;2023-06-10T08:53:56;28.10;70.10
60701;DHT22;46541;49.894;10.886;2023-06-10T08:56:28;28.10;70.60
60701;DHT22;46541;49.894;10.886;2023-06-10T08:58:57;28.00;71.30
60701;DHT22;46541;49.894;10.886;2023-06-10T09:01:25;28.00;71.00
60701;DHT22;46541;49.894;10.886;2023-06-10T09:03:53;28.10;71.40
60701;DHT22;46541;49.894;10.886;2023-06-10T09:06:21;28.20;71.30
60701;DHT22;46541;49.894;10.886;2023-06-10T09:08:48;28.40;71.50
60701;DHT22;46541;49.894;10.886;2023-06-10T09:11:16;28.50;70.10
60701;DHT22;46541;49.894;10.886;2023-06-10T09:13:43;28.50;69.10
60701;DHT22;46541;49.894;10.886;2023-06-10T09:16:10;28.50;69.40
60701;DHT22;46541;49.894;10.886;2023-06-10T09:18:38;28.50;69.80
60701;DHT22;46541;49.894;10.886;2023-06-10T09:21:05;28.50;69.20
60701;DHT22;46541;49.894;10.886;2023-06-10T09:23:32;28.40;69.30
60701;DHT22;46541;49.894;10.886;2023-06-10T09:25:59;28.20;70.60
60701;DHT22;46541;49.894;10.886;2023-06-10T09:28:26;28.10;69.50
60701;DHT22;46541;49.894;10.886;2023-06-10T09:31:05;27.90;70.20
60701;DHT22;46541;49.894;10.886;2023-06-10T09:33:37;28.00;70.90
60701;DHT22;46541;49.894;10.886;2023-06-10T09:36:06;28.00;70.60
60701;DHT22;46541;49.894;10.886;2023-06-10T09:38:34;28.10;69.30
60701;DHT22;46541;49.894;10.886;2023-06-10T09:41:01;28.00;69.80
60701;DHT22;46541;49.894;10.886;2023-06-10T09:43:43;28.10;69.00
60701;DHT22;46541;49.894;10.886;2023-06-10T09:46:17;28.10;69.70
60701;DHT22;46541;49.894;10.886;2023-06-10T09:48:46;28.30;69.50
60701;DHT22;46541;49.894;10.886;2023-06-10T09:51:14;28.40;69.20
60701;DHT22;46541;49.894;10.886;2023-06-10T09:53:41;28.30;68.80
60701;DHT22;46541;49.894;10.886;2023-06-10T09:56:08;28.60;67.80
60701;DHT22;46541;49.894;10.886;2023-06-10T09:58:38;28.60;68.00
60701;DHT22;46541;49.894;10.886;2023-06-10T10:01:07;28.30;68.00
60701;DHT22;46541;49.894;10.886;2023-06-10T10:03:46;28.20;69.00
60701;DHT22;46541;49.894;10.886;2023-06-10T10:06:14;28.10;69.10
60701;DHT22;46541;49.894;10.886;2023-06-10T10:08:41;28.10;68.70
60701;DHT22;46541;49.894;10.886;2023-06-10T10:11:09;28.00;69.20
60701;DHT22;46541;49.894;10.886;2023-06-10T10:13:37;27.90;68.90
60701;DHT22;46541;49.894;10.886;2023-06-10T10:16:11;28.00;68.30
60701;DHT22;46541;49.894;10.886;2023-06-10T10:18:44;28.20;68.40
60701;DHT22;46541;49.894;10.886;2023-06-10T10:21:13;28.30;68.30
60701;DHT22;46541;49.894;10.886;2023-06-10T10:24:07;28.10;68.60
60701;DHT22;46541;49.894;10.886;2023-06-10T10:26:38;28.30;67.70
60701;DHT22;46541;49.894;10.886;2023-06-10T10:29:16;28.60;67.10
60701;DHT22;46541;49.894;10.886;2023-06-10T10:31:49;28.60;66.90
60701;DHT22;46541;49.894;10.886;2023-06-10T10:34:21;29.00;66.80
60701;DHT22;46541;49.894;10.886;2023-06-10T10:36:50;29.20;67.10
60701;DHT22;46541;49.894;10.886;2023-06-10T10:39:18;29.10;66.70
60701;DHT22;46541;49.894;10.886;2023-06-10T10:41:45;29.30;66.00
60701;DHT22;46541;49.894;10.886;2023-06-10T10:44:13;29.40;65.00
60701;DHT22;46541;49.894;10.886;2023-06-10T10:46:44;29.60;64.30
60701;DHT22;46541;49.894;10.886;2023-06-10T10:49:15;29.50;65.00
60701;DHT22;46541;49.894;10.886;2023-06-10T10:51:56;29.40;64.70
60701;DHT22;46541;49.894;10.886;2023-06-10T10:54:34;29.20;65.00
60701;DHT22;46541;49.894;10.886;2023-06-10T10:57:16;29.10;65.30
60701;DHT22;46541;49.894;10.886;2023-06-10T11:02:35;29.20;65.30
60701;DHT22;46541;49.894;10.886;2023-06-10T11:05:06;29.10;65.20
60701;DHT22;46541;49.894;10.886;2023-06-10T11:07:34;29.00;65.60
60701;DHT22;46541;49.894;10.886;2023-06-10T11:10:12;29.00;65.40
60701;DHT22;46541;49.894;10.886;2023-06-10T11:15:13;29.40;64.40
60701;DHT22;46541;49.894;10.886;2023-06-10T11:31:36;29.60;62.90
60701;DHT22;46541;49.894;10.886;2023-06-10T11:34:06;29.30;62.90
60701;DHT22;46541;49.894;10.886;2023-06-10T11:36:36;29.10;63.50
60701;DHT22;46541;49.894;10.886;2023-06-10T11:39:05;29.10;63.50
60701;DHT22;46541;49.894;10.886;2023-06-10T11:41:33;29.20;63.70
60701;DHT22;46541;49.894;10.886;2023-06-10T11:44:08;29.50;63.50
60701;DHT22;46541;49.894;10.886;2023-06-10T11:46:36;29.40;63.50
60701;DHT22;46541;49.894;10.886;2023-06-10T11:49:03;29.20;63.60
60701;DHT22;46541;49.894;10.886;2023-06-10T11:51:36;28.90;64.30
60701;DHT22;46541;49.894;10.886;2023-06-10T11:54:03;28.60;64.90
60701;DHT22;46541;49.894;10.886;2023-06-10T11:56:31;28.40;65.60
60701;DHT22;46541;49.894;10.886;2023-06-10T11:59:02;28.20;66.30
60701;DHT22;46541;49.894;10.886;2023-06-10T12:01:35;28.00;66.40
60701;DHT22;46541;49.894;10.886;2023-06-10T12:04:10;27.90;66.70
60701;DHT22;46541;49.894;10.886;2023-06-10T12:06:41;27.70;66.50
60701;DHT22;46541;49.894;10.886;2023-06-10T12:09:17;27.80;66.20
60701;DHT22;46541;49.894;10.886;2023-06-10T12:11:58;27.70;66.30
60701;DHT22;46541;49.894;10.886;2023-06-10T12:17:20;28.00;66.40
60701;DHT22;46541;49.894;10.886;2023-06-10T12:19:47;28.00;65.90
60701;DHT22;46541;49.894;10.886;2023-06-10T12:22:15;28.10;65.50
60701;DHT22;46541;49.894;10.886;2023-06-10T12:25:03;28.10;65.50
60701;DHT22;46541;49.894;10.886;2023-06-10T12:27:31;28.30;65.70
60701;DHT22;46541;49.894;10.886;2023-06-10T12:29:59;28.50;65.20
60701;DHT22;46541;49.894;10.886;2023-06-10T12:35:04;29.20;65.00
60701;DHT22;46541;49.894;10.886;2023-06-10T12:37:31;29.20;63.90
60701;DHT22;46541;49.894;10.886;2023-06-10T12:40:06;29.30;63.60
60701;DHT22;46541;49.894;10.886;2023-06-10T12:42:38;29.10;63.50
60701;DHT22;46541;49.894;10.886;2023-06-10T12:45:06;28.90;64.10
60701;DHT22;46541;49.894;10.886;2023-06-10T12:47:37;28.60;65.60
60701;DHT22;46541;49.894;10.886;2023-06-10T12:50:08;28.40;67.10
60701;DHT22;46541;49.894;10.886;2023-06-10T12:52:35;28.30;66.70
60701;DHT22;46541;49.894;10.886;2023-06-10T12:55:03;28.40;67.10
60701;DHT22;46541;49.894;10.886;2023-06-10T12:57:31;28.60;66.60
60701;DHT22;46541;49.894;10.886;2023-06-10T12:59:57;28.70;65.60
60701;DHT22;46541;49.894;10.886;2023-06-10T13:02:30;29.00;65.40
60701;DHT22;46541;49.894;10.886;2023-06-10T13:04:58;29.30;65.10
60701;DHT22;46541;49.894;10.886;2023-06-10T13:07:25;29.30;65.80
60701;DHT22;46541;49.894;10.886;2023-06-10T13:09:52;29.30;65.50
60701;DHT22;46541;49.894;10.886;2023-06-10T13:12:19;29.10;66.00
60701;DHT22;46541;49.894;10.886;2023-06-10T13:15:04;28.80;67.40
60701;DHT22;46541;49.894;10.886;2023-06-10T13:17:31;28.30;74.10
60701;DHT22;46541;49.894;10.886;2023-06-10T13:19:58;28.10;77.10
60701;DHT22;46541;49.894;10.886;2023-06-10T13:22:25;28.00;77.10
60701;DHT22;46541;49.894;10.886;2023-06-10T13:24:53;27.60;75.30
60701;DHT22;46541;49.894;10.886;2023-06-10T13:27:20;27.60;75.40
60701;DHT22;46541;49.894;10.886;2023-06-10T13:29:46;27.50;73.80
60701;DHT22;46541;49.894;10.886;2023-06-10T13:32:15;27.50;74.20
60701;DHT22;46541;49.894;10.886;2023-06-10T13:34:42;27.50;71.80
60701;DHT22;46541;49.894;10.886;2023-06-10T13:37:08;27.60;70.90
60701;DHT22;46541;49.894;10.886;2023-06-10T13:39:35;27.50;70.40
60701;DHT22;46541;49.894;10.886;2023-06-10T13:42:02;27.60;70.40
60701;DHT22;46541;49.894;10.886;2023-06-10T13:44:29;27.80;69.40
60701;DHT22;46541;49.894;10.886;2023-06-10T13:46:59;28.10;69.10
60701;DHT22;46541;49.894;10.886;2023-06-10T13:49:26;30.30;66.20
60701;DHT22;46541;49.894;10.886;2023-06-10T13:51:53;30.60;62.20
60701;DHT22;46541;49.894;10.886;2023-06-10T13:54:20;30.00;63.90
60701;DHT22;46541;49.894;10.886;2023-06-10T13:56:47;29.20;67.20
60701;DHT22;46541;49.894;10.886;2023-06-10T13:59:14;28.30;70.00
60701;DHT22;46541;49.894;10.886;2023-06-10T14:01:41;27.80;70.90
60701;DHT22;46541;49.894;10.886;2023-06-10T14:04:08;27.70;71.60
60701;DHT22;46541;49.894;10.886;2023-06-10T14:06:35;27.70;72.20
60701;DHT22;46541;49.894;10.886;2023-06-10T14:09:02;27.60;73.30
60701;DHT22;46541;49.894;10.886;2023-06-10T14:11:29;28.00;73.40
60701;DHT22;46541;49.894;10.886;2023-06-10T14:14:00;28.60;73.00
60701;DHT22;46541;49.894;10.886;2023-06-10T14:16:27;28.70;72.80
60701;DHT22;46541;49.894;10.886;2023-06-10T14:18:54;28.40;73.30
60701;DHT22;46541;49.894;10.886;2023-06-10T14:21:22;28.30;73.80
60701;DHT22;46541;49.894;10.886;2023-06-10T14:23:48;28.00;74.50
60701;DHT22;46541;49.894;10.886;2023-06-10T14:26:16;27.60;74.90
60701;DHT22;46541;49.894;10.886;2023-06-10T14:28:43;27.50;75.20
60701;DHT22;46541;49.894;10.886;2023-06-10T14:31:10;27.50;75.50
60701;DHT22;46541;49.894;10.886;2023-06-10T14:33:37;27.60;75.00
60701;DHT22;46541;49.894;10.886;2023-06-10T14:36:04;27.70;74.30
60701;DHT22;46541;49.894;10.886;2023-06-10T14:38:31;27.80;74.50
60701;DHT22;46541;49.894;10.886;2023-06-10T14:40:58;27.80;74.70
60701;DHT22;46541;49.894;10.886;2023-06-10T14:43:25;27.80;75.00
60701;DHT22;46541;49.894;10.886;2023-06-10T14:45:51;27.90;74.40
60701;DHT22;46541;49.894;10.886;2023-06-10T14:48:18;28.00;74.50
60701;DHT22;46541;49.894;10.886;2023-06-10T14:50:45;28.20;74.40
60701;DHT22;46541;49.894;10.886;2023-06-10T14:53:17;28.40;72.90
60701;DHT22;46541;49.894;10.886;2023-06-10T14:55:44;28.30;72.10
60701;DHT22;46541;49.894;10.886;2023-06-10T14:58:11;28.10;71.90
60701;DHT22;46541;49.894;10.886;2023-06-10T15:00:38;28.10;71.40
60701;DHT22;46541;49.894;10.886;2023-06-10T15:03:04;27.80;71.80
60701;DHT22;46541;49.894;10.886;2023-06-10T15:05:31;27.60;72.10
60701;DHT22;46541;49.894;10.886;2023-06-10T15:08:00;27.60;72.70
60701;DHT22;46541;49.894;10.886;2023-06-10T15:10:26;27.60;72.40
60701;DHT22;46541;49.894;10.886;2023-06-10T15:12:53;27.60;72.30
60701;DHT22;46541;49.894;10.886;2023-06-10T15:15:23;27.60;72.70
60701;DHT22;46541;49.894;10.886;2023-06-10T15:17:52;27.50;72.40
60701;DHT22;46541;49.894;10.886;2023-06-10T15:20:19;27.50;72.40
60701;DHT22;46541;49.894;10.886;2023-06-10T15:22:46;27.40;71.50
60701;DHT22;46541;49.894;10.886;2023-06-10T15:25:13;27.40;71.50
60701;DHT22;46541;49.894;10.886;2023-06-10T15:27:56;27.20;71.30
60701;DHT22;46541;49.894;10.886;2023-06-10T15:30:23;27.20;71.20
60701;DHT22;46541;49.894;10.886;2023-06-10T15:32:50;27.00;71.30
60701;DHT22;46541;49.894;10.886;2023-06-10T15:35:17;27.10;71.50
60701;DHT22;46541;49.894;10.886;2023-06-10T15:37:44;27.10;71.10
60701;DHT22;46541;49.894;10.886;2023-06-10T15:40:10;27.20;70.70
60701;DHT22;46541;49.894;10.886;2023-06-10T15:42:37;27.20;70.50
60701;DHT22;46541;49.894;10.886;2023-06-10T15:45:05;27.20;73.40
60701;DHT22;46541;49.894;10.886;2023-06-10T15:47:32;26.70;70.00
60701;DHT22;46541;49.894;10.886;2023-06-10T15:49:58;26.70;69.70